createdAt,value
2023-04-09T00:01:36.338Z,10.63
2023-04-09T00:04:03.178Z,12.27
2023-04-09T00:06:29.949Z,13.13
2023-04-09T00:08:56.759Z,13.40
2023-04-09T00:11:23.298Z,13.40
2023-04-09T00:13:49.946Z,34.90
2023-04-09T00:16:16.642Z,45.37
2023-04-09T00:18:43.229Z,25.57
2023-04-09T00:21:09.887Z,14.50
2023-04-09T00:23:36.697Z,20.17
2023-04-09T00:26:03.324Z,21.30
2023-04-09T00:28:29.933Z,36.77
2023-04-09T00:30:57.299Z,17.77
2023-04-09T00:33:23.897Z,17.67
2023-04-09T00:35:50.559Z,15.30
2023-04-09T00:38:17.193Z,15.73
2023-04-09T00:40:43.925Z,13.80
2023-04-09T00:43:10.601Z,17.47
2023-04-09T00:45:37.964Z,16.70
2023-04-09T00:48:04.710Z,33.80
2023-04-09T00:50:31.327Z,45.80
2023-04-09T00:52:57.944Z,15.23
2023-04-09T00:55:25.392Z,17.13
2023-04-09T00:57:51.995Z,34.63
2023-04-09T01:00:18.670Z,21.53
2023-04-09T01:02:45.661Z,21.33
2023-04-09T01:05:12.904Z,10.63
2023-04-09T01:07:42.400Z,12.90
2023-04-09T01:10:24.085Z,18.37
2023-04-09T01:12:56.744Z,16.33
2023-04-09T01:15:26.980Z,51.20
2023-04-09T01:18:00.536Z,28.40
2023-04-09T01:20:36.737Z,26.67
2023-04-09T01:23:32.963Z,19.60
2023-04-09T01:26:21.692Z,23.47
2023-04-09T01:28:51.899Z,14.50
2023-04-09T01:31:19.336Z,31.53
2023-04-09T01:33:46.200Z,9.80
2023-04-09T01:36:13.567Z,11.47
2023-04-09T01:38:42.472Z,22.17
2023-04-09T01:41:14.571Z,10.07
2023-04-09T01:43:41.916Z,10.63
2023-04-09T01:46:09.531Z,13.07
2023-04-09T01:48:36.969Z,11.70
2023-04-09T01:51:03.884Z,10.17
2023-04-09T01:53:31.202Z,10.73
2023-04-09T01:56:01.846Z,10.20
2023-04-09T01:58:28.726Z,15.73
2023-04-09T02:01:21.576Z,13.23
2023-04-09T02:03:59.016Z,9.30
2023-04-09T02:06:36.978Z,10.00
2023-04-09T02:09:06.241Z,10.63
2023-04-09T02:11:33.860Z,9.00
2023-04-09T02:14:01.278Z,9.77
2023-04-09T02:16:28.090Z,9.77
2023-04-09T02:18:56.612Z,10.60
2023-04-09T02:21:24.122Z,10.50
2023-04-09T02:23:51.014Z,11.47
2023-04-09T02:26:17.678Z,10.77
2023-04-09T02:28:44.252Z,11.73
2023-04-09T02:31:11.607Z,11.30
2023-04-09T02:33:38.375Z,12.20
2023-04-09T02:36:05.904Z,11.37
2023-04-09T02:38:42.342Z,13.24
2023-04-09T02:41:09.356Z,15.13
2023-04-09T02:43:36.059Z,14.67
2023-04-09T02:46:03.956Z,15.87
2023-04-09T02:48:30.688Z,15.60
2023-04-09T02:50:57.330Z,16.47
2023-04-09T02:53:24.075Z,17.87
2023-04-09T02:55:50.736Z,15.93
2023-04-09T02:58:17.314Z,17.13
2023-04-09T03:00:43.898Z,14.57
2023-04-09T03:03:10.764Z,12.23
2023-04-09T03:05:38.133Z,14.17
2023-04-09T03:08:04.932Z,13.93
2023-04-09T03:10:31.506Z,13.57
2023-04-09T03:12:58.037Z,15.03
2023-04-09T03:15:24.629Z,11.30
2023-04-09T03:17:51.234Z,10.80
2023-04-09T03:20:17.826Z,10.14
2023-04-09T03:22:44.428Z,11.47
2023-04-09T03:25:11.315Z,10.83
2023-04-09T03:27:37.846Z,11.57
2023-04-09T03:30:04.804Z,11.53
2023-04-09T03:32:31.438Z,17.40
2023-04-09T03:34:58.093Z,19.87
2023-04-09T03:37:24.689Z,16.30
2023-04-09T03:39:51.303Z,15.57
2023-04-09T03:42:17.845Z,14.13
2023-04-09T03:44:44.454Z,12.43
2023-04-09T03:47:11.012Z,12.13
2023-04-09T03:49:37.843Z,12.83
2023-04-09T03:52:04.537Z,12.20
2023-04-09T03:54:31.816Z,12.57
2023-04-09T03:56:58.416Z,12.00
2023-04-09T03:59:25.073Z,15.97
2023-04-09T04:01:51.831Z,11.77
2023-04-09T04:04:19.947Z,12.00
2023-04-09T04:06:48.617Z,11.70
2023-04-09T04:09:15.532Z,11.93
2023-04-09T04:11:42.116Z,12.37
2023-04-09T04:14:08.796Z,11.20
2023-04-09T04:16:36.184Z,11.87
2023-04-09T04:19:02.915Z,11.87
2023-04-09T04:21:29.504Z,11.33
2023-04-09T04:23:56.288Z,10.63
2023-04-09T04:26:22.961Z,9.77
2023-04-09T04:28:49.959Z,10.50
2023-04-09T04:31:16.813Z,10.67
2023-04-09T04:33:43.594Z,24.83
2023-04-09T04:36:12.544Z,24.07
2023-04-09T04:38:41.309Z,18.23
2023-04-09T04:41:08.441Z,25.33
2023-04-09T04:43:35.161Z,21.57
2023-04-09T04:46:01.854Z,12.80
2023-04-09T04:48:29.091Z,10.73
2023-04-09T04:50:57.311Z,11.77
2023-04-09T04:53:24.185Z,13.13
2023-04-09T04:55:50.992Z,10.30
2023-04-09T04:58:17.954Z,13.20
2023-04-09T05:00:45.199Z,19.07
2023-04-09T05:03:20.568Z,18.23
2023-04-09T05:05:47.256Z,11.40
2023-04-09T05:08:13.998Z,12.17
2023-04-09T05:10:42.894Z,9.97
2023-04-09T05:13:09.604Z,8.80
2023-04-09T05:15:40.681Z,8.10
2023-04-09T05:18:08.335Z,7.07
2023-04-09T05:20:35.396Z,7.87
2023-04-09T05:23:02.052Z,7.63
2023-04-09T05:25:28.629Z,7.60
2023-04-09T05:27:56.100Z,6.63
2023-04-09T05:30:22.715Z,6.17
2023-04-09T05:32:49.335Z,5.77
2023-04-09T05:35:16.034Z,6.87
2023-04-09T05:37:42.771Z,5.50
2023-04-09T05:40:09.988Z,6.30
2023-04-09T05:42:36.575Z,6.33
2023-04-09T05:45:03.560Z,6.43
2023-04-09T05:47:30.134Z,6.37
2023-04-09T05:49:56.804Z,6.60
2023-04-09T05:52:23.400Z,5.23
2023-04-09T05:54:50.037Z,7.87
2023-04-09T05:57:16.633Z,6.80
2023-04-09T05:59:43.208Z,6.30
2023-04-09T06:02:09.853Z,4.97
2023-04-09T06:04:36.612Z,5.50
2023-04-09T06:07:03.214Z,5.67
2023-04-09T06:09:29.897Z,5.83
2023-04-09T06:11:57.845Z,5.63
2023-04-09T06:14:24.554Z,4.83
2023-04-09T06:16:51.219Z,4.73
2023-04-09T06:19:17.863Z,5.00
2023-04-09T06:21:44.513Z,6.07
2023-04-09T06:24:11.304Z,5.80
2023-04-09T06:26:37.934Z,5.60
2023-04-09T06:29:04.893Z,6.70
2023-04-09T06:31:31.603Z,6.23
2023-04-09T06:33:58.290Z,5.13
2023-04-09T06:36:25.073Z,4.93
2023-04-09T06:38:51.696Z,4.93
2023-04-09T06:41:21.233Z,5.53
2023-04-09T06:43:47.814Z,5.60
2023-04-09T06:46:17.327Z,6.40
2023-04-09T06:48:44.834Z,5.30
2023-04-09T06:51:11.592Z,5.80
2023-04-09T06:53:39.061Z,6.97
2023-04-09T06:56:06.293Z,5.27
2023-04-09T06:58:32.889Z,5.20
2023-04-09T07:01:00.374Z,6.43
2023-04-09T07:03:28.155Z,6.43
2023-04-09T07:05:55.565Z,5.50
2023-04-09T07:08:23.420Z,6.10
2023-04-09T07:10:50.061Z,5.90
2023-04-09T07:13:16.718Z,6.80
2023-04-09T07:15:43.392Z,7.50
2023-04-09T07:18:09.971Z,6.87
2023-04-09T07:20:42.992Z,6.18
2023-04-09T07:23:09.593Z,6.60
2023-04-09T07:25:36.511Z,6.73
2023-04-09T07:28:03.189Z,6.43
2023-04-09T07:30:29.960Z,6.57
2023-04-09T07:32:56.634Z,6.70
2023-04-09T07:35:23.343Z,6.40
2023-04-09T07:37:49.963Z,6.30
2023-04-09T07:40:16.764Z,6.60
2023-04-09T07:42:43.661Z,6.60
2023-04-09T07:45:10.398Z,6.40
2023-04-09T07:47:37.997Z,6.30
2023-04-09T07:50:05.330Z,5.70
2023-04-09T07:52:31.893Z,6.17
2023-04-09T07:54:58.510Z,5.80
2023-04-09T07:57:25.155Z,5.10
2023-04-09T07:59:53.442Z,4.40
2023-04-09T08:02:20.076Z,4.77
2023-04-09T08:04:46.890Z,4.10
2023-04-09T08:07:13.627Z,4.77
2023-04-09T08:09:40.552Z,4.80
2023-04-09T08:12:07.136Z,5.60
2023-04-09T08:14:34.144Z,4.67
2023-04-09T08:17:01.599Z,4.70
2023-04-09T08:19:28.211Z,4.97
2023-04-09T08:21:54.840Z,4.80
2023-04-09T08:24:21.519Z,5.00
2023-04-09T08:26:48.155Z,5.37
2023-04-09T08:29:14.758Z,4.90
2023-04-09T08:31:42.022Z,4.43
2023-04-09T08:34:08.631Z,5.77
2023-04-09T08:36:36.043Z,6.23
2023-04-09T08:39:04.093Z,5.27
2023-04-09T08:41:31.212Z,4.63
2023-04-09T08:43:59.728Z,4.67
2023-04-09T08:46:27.773Z,4.80
2023-04-09T08:48:54.993Z,5.47
2023-04-09T08:51:25.098Z,5.60
2023-04-09T08:54:04.045Z,5.83
2023-04-09T08:56:31.627Z,5.00
2023-04-09T08:58:58.780Z,5.37
2023-04-09T09:01:27.744Z,4.93
2023-04-09T09:04:01.379Z,5.23
2023-04-09T09:06:33.360Z,5.10
2023-04-09T09:09:03.872Z,6.73
2023-04-09T09:11:30.809Z,6.07
2023-04-09T09:14:05.003Z,7.20
2023-04-09T09:16:34.692Z,6.60
2023-04-09T09:19:02.765Z,5.90
2023-04-09T09:21:30.203Z,5.83
2023-04-09T09:23:57.426Z,5.10
2023-04-09T09:26:26.552Z,6.03
2023-04-09T09:28:53.680Z,5.50
2023-04-09T09:31:22.079Z,6.17
2023-04-09T09:33:50.663Z,6.03
2023-04-09T09:36:34.126Z,6.40
2023-04-09T09:39:09.869Z,6.47
2023-04-09T09:41:36.904Z,6.37
2023-04-09T09:44:04.634Z,6.27
2023-04-09T09:46:35.347Z,5.30
2023-04-09T09:49:02.197Z,6.30
2023-04-09T09:51:29.010Z,5.20
2023-04-09T09:54:00.012Z,4.63
2023-04-09T09:56:36.203Z,4.67
2023-04-09T09:59:22.567Z,4.50
2023-04-09T10:01:52.759Z,5.10
2023-04-09T10:04:20.726Z,4.83
2023-04-09T10:06:50.606Z,6.40
2023-04-09T10:09:20.678Z,4.17
2023-04-09T10:11:48.858Z,4.63
2023-04-09T10:14:16.810Z,4.17
2023-04-09T10:16:43.690Z,4.63
2023-04-09T10:19:14.241Z,4.60
2023-04-09T10:22:05.746Z,42.30
2023-04-09T10:24:34.306Z,4.73
2023-04-09T10:27:13.657Z,3.63
2023-04-09T10:29:46.905Z,4.20
2023-04-09T10:32:21.143Z,3.60
2023-04-09T10:34:49.245Z,3.37
2023-04-09T10:37:20.925Z,3.30
2023-04-09T10:39:48.682Z,3.40
2023-04-09T10:42:19.241Z,3.83
2023-04-09T10:44:46.117Z,3.63
2023-04-09T10:47:31.601Z,3.97
2023-04-09T10:49:58.168Z,4.97
2023-04-09T10:52:30.254Z,3.57
2023-04-09T10:54:57.211Z,3.73
2023-04-09T10:57:24.638Z,3.33
2023-04-09T10:59:55.894Z,3.47
2023-04-09T11:02:31.982Z,3.93
2023-04-09T11:05:26.394Z,3.33
2023-04-09T11:08:06.340Z,3.13
2023-04-09T11:10:33.511Z,3.50
2023-04-09T11:13:00.692Z,4.70
2023-04-09T11:15:27.431Z,4.40
2023-04-09T11:17:54.353Z,4.43
2023-04-09T11:20:23.291Z,4.10
2023-04-09T11:22:51.689Z,3.70
2023-04-09T11:25:24.600Z,4.07
2023-04-09T11:27:51.387Z,6.97
2023-04-09T11:30:18.132Z,5.83
2023-04-09T11:32:45.416Z,4.07
2023-04-09T11:35:17.930Z,18.90
2023-04-09T11:37:45.015Z,4.00
2023-04-09T11:40:16.196Z,4.00
2023-04-09T11:42:43.882Z,3.80
2023-04-09T11:45:11.521Z,3.80
2023-04-09T11:47:40.275Z,3.80
2023-04-09T11:50:08.437Z,3.60
2023-04-09T11:52:36.007Z,3.93
2023-04-09T11:55:06.363Z,3.73
2023-04-09T11:57:46.147Z,4.00
2023-04-09T12:00:14.998Z,4.50
2023-04-09T12:02:46.697Z,3.87
2023-04-09T12:05:24.751Z,4.47
2023-04-09T12:07:56.397Z,3.87
2023-04-09T12:10:27.647Z,4.07
2023-04-09T12:12:54.241Z,3.70
2023-04-09T12:15:22.893Z,4.40
2023-04-09T12:17:51.403Z,3.63
2023-04-09T12:20:40.094Z,3.70
2023-04-09T12:23:07.525Z,3.80
2023-04-09T12:25:36.875Z,4.33
2023-04-09T12:28:04.590Z,3.63
2023-04-09T12:30:31.854Z,4.30
2023-04-09T12:32:59.243Z,3.90
2023-04-09T12:35:26.002Z,4.00
2023-04-09T12:37:53.562Z,4.43
2023-04-09T12:40:20.611Z,3.80
2023-04-09T12:42:47.516Z,4.50
2023-04-09T12:45:17.391Z,5.20
2023-04-09T12:47:45.025Z,3.70
2023-04-09T12:50:12.812Z,4.37
2023-04-09T12:52:39.710Z,4.90
2023-04-09T12:55:07.051Z,4.47
2023-04-09T12:57:33.948Z,3.53
2023-04-09T13:00:00.771Z,4.40
2023-04-09T13:02:27.567Z,5.07
2023-04-09T13:04:54.249Z,4.07
2023-04-09T13:07:20.837Z,4.57
2023-04-09T13:09:50.347Z,4.90
2023-04-09T13:12:17.462Z,4.57
2023-04-09T13:14:46.679Z,4.50
2023-04-09T13:17:13.631Z,4.60
2023-04-09T13:19:42.594Z,4.43
2023-04-09T13:22:09.483Z,4.20
2023-04-09T13:24:36.504Z,4.60
2023-04-09T13:27:04.640Z,5.00
2023-04-09T13:29:31.985Z,4.97
2023-04-09T13:31:58.759Z,4.37
2023-04-09T13:34:25.484Z,4.10
2023-04-09T13:36:52.240Z,4.00
2023-04-09T13:39:18.844Z,4.43
2023-04-09T13:41:45.483Z,4.70
2023-04-09T13:44:12.414Z,5.00
2023-04-09T13:46:39.317Z,3.70
2023-04-09T13:49:06.067Z,5.80
2023-04-09T13:51:33.690Z,4.80
2023-04-09T13:54:00.322Z,4.87
2023-04-09T13:56:27.562Z,3.37
2023-04-09T13:58:54.710Z,3.93
2023-04-09T14:01:21.531Z,4.87
2023-04-09T14:03:48.381Z,4.70
2023-04-09T14:06:15.430Z,4.90
2023-04-09T14:08:41.992Z,4.57
2023-04-09T14:11:08.673Z,3.97
2023-04-09T14:13:35.421Z,3.77
2023-04-09T14:16:02.033Z,3.57
2023-04-09T14:18:28.676Z,3.17
2023-04-09T14:20:55.449Z,4.40
2023-04-09T14:23:22.087Z,4.87
2023-04-09T14:25:48.670Z,4.30
2023-04-09T14:28:15.317Z,5.20
2023-04-09T14:30:41.895Z,4.63
2023-04-09T14:33:08.642Z,4.63
2023-04-09T14:35:35.547Z,5.00
2023-04-09T14:38:04.451Z,4.97
2023-04-09T14:40:32.003Z,4.00
2023-04-09T14:42:59.606Z,4.63
2023-04-09T14:45:26.502Z,4.77
2023-04-09T14:47:54.955Z,4.37
2023-04-09T14:50:21.699Z,4.33
2023-04-09T14:52:48.347Z,4.93
2023-04-09T14:55:15.746Z,4.93
2023-04-09T14:57:42.703Z,5.03
2023-04-09T15:00:10.864Z,4.33
2023-04-09T15:02:38.773Z,5.20
2023-04-09T15:05:05.854Z,5.20
2023-04-09T15:07:32.523Z,4.90
2023-04-09T15:09:59.905Z,4.63
2023-04-09T15:12:28.199Z,4.70
2023-04-09T15:14:57.880Z,3.40
2023-04-09T15:17:24.996Z,4.27
2023-04-09T15:19:52.593Z,4.67
2023-04-09T15:22:19.462Z,3.87
2023-04-09T15:24:46.097Z,4.77
2023-04-09T15:27:12.763Z,4.80
2023-04-09T15:29:39.370Z,4.27
2023-04-09T15:32:06.105Z,4.93
2023-04-09T15:34:32.763Z,5.20
2023-04-09T15:36:59.340Z,5.33
2023-04-09T15:39:28.473Z,5.87
2023-04-09T15:41:58.402Z,5.33
2023-04-09T15:44:25.829Z,4.87
2023-04-09T15:46:52.475Z,4.63
2023-04-09T15:49:19.742Z,3.70
2023-04-09T15:51:46.560Z,4.37
2023-04-09T15:54:13.282Z,4.40
2023-04-09T15:56:40.493Z,4.40
2023-04-09T15:59:08.479Z,4.03
2023-04-09T16:01:36.392Z,5.33
2023-04-09T16:04:06.481Z,4.60
2023-04-09T16:06:33.184Z,5.47
2023-04-09T16:08:59.804Z,5.20
2023-04-09T16:11:26.617Z,4.70
2023-04-09T16:13:53.463Z,5.80
2023-04-09T16:16:26.693Z,4.87
2023-04-09T16:18:53.560Z,5.53
2023-04-09T16:21:20.321Z,5.77
2023-04-09T16:23:46.954Z,5.83
2023-04-09T16:26:13.635Z,6.47
2023-04-09T16:28:40.449Z,6.60
2023-04-09T16:31:07.361Z,6.63
2023-04-09T16:33:34.009Z,6.60
2023-04-09T16:36:00.953Z,6.10
2023-04-09T16:38:29.239Z,7.80
2023-04-09T16:40:56.394Z,8.60
2023-04-09T16:43:23.077Z,9.50
2023-04-09T16:45:49.820Z,9.00
2023-04-09T16:48:16.458Z,6.40
2023-04-09T16:50:43.119Z,7.23
2023-04-09T16:53:09.823Z,7.27
2023-04-09T16:55:36.633Z,6.47
2023-04-09T16:58:03.435Z,8.83
2023-04-09T17:00:30.169Z,10.77
2023-04-09T17:02:57.958Z,6.70
2023-04-09T17:05:24.987Z,18.97
2023-04-09T17:07:52.479Z,14.40
2023-04-09T17:10:19.619Z,7.13
2023-04-09T17:12:46.242Z,6.47
2023-04-09T17:15:12.910Z,6.87
2023-04-09T17:17:39.647Z,6.47
2023-04-09T17:20:06.928Z,7.03
2023-04-09T17:22:35.106Z,7.80
2023-04-09T17:25:04.216Z,7.20
2023-04-09T17:27:31.363Z,6.80
2023-04-09T17:29:58.166Z,5.63
2023-04-09T17:32:24.827Z,5.50
2023-04-09T17:34:52.386Z,5.83
2023-04-09T17:37:18.981Z,6.77
2023-04-09T17:39:45.587Z,13.87
2023-04-09T17:42:12.281Z,14.20
2023-04-09T17:44:39.197Z,14.27
2023-04-09T17:47:07.495Z,13.07
2023-04-09T17:49:34.507Z,11.30
2023-04-09T17:52:01.376Z,11.67
2023-04-09T17:54:33.583Z,14.77
2023-04-09T17:57:01.251Z,18.10
2023-04-09T17:59:28.016Z,14.57
2023-04-09T18:01:55.284Z,15.03
2023-04-09T18:04:23.738Z,17.70
2023-04-09T18:06:50.734Z,18.70
2023-04-09T18:09:17.349Z,22.07
2023-04-09T18:11:44.388Z,19.63
2023-04-09T18:14:11.172Z,16.03
2023-04-09T18:16:38.643Z,17.30
2023-04-09T18:19:06.728Z,18.97
2023-04-09T18:21:36.443Z,18.03
2023-04-09T18:24:03.698Z,18.00
2023-04-09T18:26:31.502Z,17.40
2023-04-09T18:29:00.707Z,23.10
2023-04-09T18:31:28.047Z,30.17
2023-04-09T18:33:54.783Z,16.90
2023-04-09T18:36:21.420Z,14.03
2023-04-09T18:38:48.304Z,15.80
2023-04-09T18:41:22.955Z,14.97
2023-04-09T18:43:49.606Z,14.00
2023-04-09T18:46:16.306Z,11.97
2023-04-09T18:48:43.463Z,17.90
2023-04-09T18:51:10.898Z,13.60
2023-04-09T18:53:37.828Z,13.03
2023-04-09T18:56:04.610Z,12.07
2023-04-09T18:58:31.457Z,13.20
2023-04-09T19:00:58.296Z,13.73
2023-04-09T19:03:26.628Z,10.23
2023-04-09T19:05:54.491Z,13.37
2023-04-09T19:08:22.295Z,25.10
2023-04-09T19:10:49.011Z,23.97
2023-04-09T19:13:16.915Z,17.77
2023-04-09T19:15:43.545Z,19.20
2023-04-09T19:18:10.446Z,22.17
2023-04-09T19:20:37.726Z,19.57
2023-04-09T19:23:04.996Z,19.57
2023-04-09T19:25:32.974Z,30.07
2023-04-09T19:27:59.589Z,23.77
2023-04-09T19:30:26.323Z,21.30
2023-04-09T19:32:53.528Z,16.67
2023-04-09T19:35:20.906Z,11.30
2023-04-09T19:37:47.638Z,20.67
2023-04-09T19:40:17.039Z,18.97
2023-04-09T19:42:44.154Z,16.57
2023-04-09T19:45:11.332Z,18.07
2023-04-09T19:47:37.987Z,18.70
2023-04-09T19:50:05.013Z,15.07
2023-04-09T19:52:31.788Z,21.63
2023-04-09T19:54:58.417Z,19.20
2023-04-09T19:57:26.499Z,19.13
2023-04-09T19:59:54.001Z,18.40
2023-04-09T20:02:20.721Z,15.87
2023-04-09T20:04:47.464Z,12.17
2023-04-09T20:07:14.309Z,15.40
2023-04-09T20:09:42.446Z,13.13
2023-04-09T20:12:10.153Z,13.17
2023-04-09T20:14:38.325Z,15.37
2023-04-09T20:17:06.231Z,16.83
2023-04-09T20:19:32.843Z,12.83
2023-04-09T20:22:00.397Z,13.37
2023-04-09T20:24:28.294Z,13.00
2023-04-09T20:26:55.876Z,14.53
2023-04-09T20:29:22.631Z,13.27
2023-04-09T20:31:49.389Z,12.80
2023-04-09T20:34:16.178Z,11.30
2023-04-09T20:36:43.945Z,11.10
2023-04-09T20:39:11.699Z,10.43
2023-04-09T20:41:38.467Z,12.33
2023-04-09T20:44:05.018Z,12.60
2023-04-09T20:46:31.816Z,12.80
2023-04-09T20:48:58.386Z,14.00
2023-04-09T20:51:24.981Z,13.17
2023-04-09T20:53:52.085Z,14.00
2023-04-09T20:56:18.739Z,13.77
2023-04-09T20:58:45.320Z,13.17
2023-04-09T21:01:11.934Z,13.50
2023-04-09T21:03:40.164Z,17.17
2023-04-09T21:06:08.259Z,18.33
2023-04-09T21:08:35.440Z,17.47
2023-04-09T21:11:02.440Z,8.10
2023-04-09T21:13:29.102Z,11.30
2023-04-09T21:15:57.087Z,11.60
2023-04-09T21:18:24.108Z,12.57
2023-04-09T21:20:50.925Z,12.03
2023-04-09T21:23:17.612Z,11.77
2023-04-09T21:25:44.146Z,10.90
2023-04-09T21:28:11.634Z,10.53
2023-04-09T21:30:38.322Z,10.87
2023-04-09T21:33:06.765Z,11.00
2023-04-09T21:35:34.248Z,11.53
2023-04-09T21:38:02.881Z,12.37
2023-04-09T21:40:30.241Z,12.17
2023-04-09T21:42:57.169Z,12.73
2023-04-09T21:45:24.102Z,11.60
2023-04-09T21:47:50.949Z,11.50
2023-04-09T21:50:17.668Z,13.43
2023-04-09T21:52:47.380Z,13.07
2023-04-09T21:55:14.242Z,13.37
2023-04-09T21:57:40.944Z,13.40
2023-04-09T22:00:10.577Z,13.07
2023-04-09T22:02:39.284Z,10.53
2023-04-09T22:05:06.619Z,11.23
2023-04-09T22:07:33.640Z,10.80
2023-04-09T22:10:00.392Z,10.20
2023-04-09T22:12:27.017Z,8.37
2023-04-09T22:14:53.627Z,8.60
2023-04-09T22:17:20.428Z,9.70
2023-04-09T22:19:47.109Z,8.23
2023-04-09T22:22:15.106Z,7.90
2023-04-09T22:24:42.785Z,9.07
2023-04-09T22:27:09.351Z,8.27
2023-04-09T22:29:37.131Z,8.47
2023-04-09T22:32:04.082Z,8.20
2023-04-09T22:34:30.694Z,7.20
2023-04-09T22:36:57.377Z,8.13
2023-04-09T22:39:23.993Z,8.00
2023-04-09T22:41:50.642Z,8.33
2023-04-09T22:44:17.467Z,7.77
2023-04-09T22:46:44.138Z,7.20
2023-04-09T22:49:11.771Z,7.23
2023-04-09T22:51:40.165Z,7.30
2023-04-09T22:54:08.062Z,7.97
2023-04-09T22:56:34.733Z,7.37
2023-04-09T22:59:01.402Z,7.10
2023-04-09T23:01:28.500Z,6.90
2023-04-09T23:03:55.636Z,8.23
2023-04-09T23:06:22.578Z,8.37
2023-04-09T23:08:49.440Z,7.97
2023-04-09T23:11:16.346Z,8.20
2023-04-09T23:13:43.006Z,6.47
2023-04-09T23:16:10.548Z,7.10
2023-04-09T23:18:37.470Z,7.30
2023-04-09T23:21:08.126Z,7.13
2023-04-09T23:23:36.177Z,8.00
2023-04-09T23:26:02.781Z,9.00
2023-04-09T23:28:29.738Z,9.07
2023-04-09T23:30:56.898Z,8.60
2023-04-09T23:33:23.894Z,7.97
2023-04-09T23:35:50.955Z,6.90
2023-04-09T23:38:17.635Z,7.00
2023-04-09T23:40:44.301Z,7.50
2023-04-09T23:43:11.113Z,6.10
2023-04-09T23:45:37.758Z,6.03
2023-04-09T23:48:06.230Z,5.73
2023-04-09T23:50:33.027Z,5.97
2023-04-09T23:53:03.779Z,5.53
2023-04-09T23:55:30.507Z,5.07
2023-04-09T23:57:57.069Z,4.90
